createdAt,value
2022-10-09T00:01:34.298Z,99.90
2022-10-09T00:04:02.703Z,99.90
2022-10-09T00:06:33.198Z,99.90
2022-10-09T00:09:02.123Z,99.90
2022-10-09T00:11:33.117Z,99.90
2022-10-09T00:14:01.945Z,99.90
2022-10-09T00:16:32.863Z,99.90
2022-10-09T00:19:01.159Z,99.90
2022-10-09T00:21:31.399Z,99.90
2022-10-09T00:24:01.565Z,99.90
2022-10-09T00:26:31.371Z,99.90
2022-10-09T00:28:59.556Z,99.90
2022-10-09T00:31:27.731Z,99.90
2022-10-09T00:33:56.445Z,99.90
2022-10-09T00:36:26.730Z,99.90
2022-10-09T00:38:55.676Z,99.90
2022-10-09T00:41:25.644Z,99.90
2022-10-09T00:43:58.100Z,99.90
2022-10-09T00:46:34.762Z,99.90
2022-10-09T00:49:10.415Z,99.90
2022-10-09T00:51:39.088Z,99.90
2022-10-09T00:54:12.888Z,99.90
2022-10-09T00:56:41.007Z,99.90
2022-10-09T00:59:11.661Z,99.90
2022-10-09T01:01:41.701Z,99.90
2022-10-09T01:04:09.972Z,99.90
2022-10-09T01:06:53.048Z,99.90
2022-10-09T01:09:26.545Z,99.90
2022-10-09T01:11:59.956Z,99.90
2022-10-09T01:14:33.952Z,99.90
2022-10-09T01:17:09.024Z,99.90
2022-10-09T01:19:51.396Z,99.90
2022-10-09T01:22:35.282Z,99.90
2022-10-09T01:25:07.702Z,99.90
2022-10-09T01:27:38.772Z,99.90
2022-10-09T01:30:11.398Z,99.90
2022-10-09T01:32:43.878Z,99.90
2022-10-09T01:35:14.119Z,99.90
2022-10-09T01:37:47.362Z,99.90
2022-10-09T01:40:17.786Z,99.90
2022-10-09T01:42:47.841Z,99.90
2022-10-09T01:45:17.263Z,99.90
2022-10-09T01:47:46.391Z,99.90
2022-10-09T01:50:23.801Z,99.90
2022-10-09T01:52:54.844Z,99.90
2022-10-09T01:55:35.979Z,99.90
2022-10-09T01:58:12.015Z,99.90
2022-10-09T02:00:44.641Z,99.90
2022-10-09T02:03:16.341Z,99.90
2022-10-09T02:05:47.317Z,99.90
2022-10-09T02:08:18.594Z,99.90
2022-10-09T02:10:48.948Z,99.90
2022-10-09T02:13:19.102Z,99.90
2022-10-09T02:15:50.747Z,99.90
2022-10-09T02:18:28.048Z,99.90
2022-10-09T02:21:01.475Z,99.90
2022-10-09T02:23:30.872Z,99.90
2022-10-09T02:25:59.823Z,99.90
2022-10-09T02:28:30.547Z,99.90
2022-10-09T02:31:07.975Z,99.90
2022-10-09T02:33:37.144Z,99.90
2022-10-09T02:36:05.484Z,99.90
2022-10-09T02:38:33.742Z,99.90
2022-10-09T02:41:02.255Z,99.90
2022-10-09T02:43:31.685Z,99.90
2022-10-09T02:45:59.828Z,99.90
2022-10-09T02:48:28.384Z,99.90
2022-10-09T02:50:56.432Z,99.90
2022-10-09T02:53:24.548Z,99.90
2022-10-09T02:55:52.700Z,99.90
2022-10-09T02:58:20.817Z,99.90
2022-10-09T03:00:51.888Z,99.90
2022-10-09T03:03:21.637Z,99.90
2022-10-09T03:05:50.276Z,99.90
2022-10-09T03:08:18.938Z,99.90
2022-10-09T03:10:47.393Z,99.90
2022-10-09T03:13:15.424Z,99.90
2022-10-09T03:15:43.550Z,99.90
2022-10-09T03:18:13.266Z,99.90
2022-10-09T03:20:41.713Z,99.90
2022-10-09T03:23:09.766Z,99.90
2022-10-09T03:25:37.954Z,99.90
2022-10-09T03:28:06.126Z,99.90
2022-10-09T03:30:34.580Z,99.90
2022-10-09T03:33:02.725Z,99.90
2022-10-09T03:35:32.168Z,99.90
2022-10-09T03:38:00.275Z,99.90
2022-10-09T03:40:28.698Z,99.90
2022-10-09T03:42:56.775Z,99.90
2022-10-09T03:45:24.879Z,99.90
2022-10-09T03:47:53.291Z,99.90
2022-10-09T03:50:21.453Z,99.90
2022-10-09T03:52:51.264Z,99.90
2022-10-09T03:55:19.932Z,99.90
2022-10-09T03:57:47.986Z,99.90
2022-10-09T04:00:16.649Z,99.90
2022-10-09T04:02:44.837Z,99.90
2022-10-09T04:05:13.287Z,99.90
2022-10-09T04:07:41.479Z,99.90
2022-10-09T04:10:11.720Z,99.90
2022-10-09T04:12:39.999Z,99.90
2022-10-09T04:15:10.062Z,99.90
2022-10-09T04:17:38.539Z,99.90
2022-10-09T04:20:07.228Z,99.90
2022-10-09T04:22:35.270Z,99.90
2022-10-09T04:25:03.364Z,99.90
2022-10-09T04:27:33.245Z,99.90
2022-10-09T04:30:01.756Z,99.90
2022-10-09T04:32:29.859Z,99.90
2022-10-09T04:34:57.915Z,99.90
2022-10-09T04:37:26.065Z,99.90
2022-10-09T04:39:54.102Z,99.90
2022-10-09T04:42:22.189Z,99.90
2022-10-09T04:44:51.660Z,99.90
2022-10-09T04:47:20.229Z,99.90
2022-10-09T04:49:48.647Z,99.90
2022-10-09T04:52:16.685Z,99.90
2022-10-09T04:54:45.097Z,99.90
2022-10-09T04:57:13.176Z,99.90
2022-10-09T04:59:41.189Z,99.90
2022-10-09T05:02:10.665Z,99.90
2022-10-09T05:04:38.839Z,99.90
2022-10-09T05:07:06.905Z,99.90
2022-10-09T05:09:34.992Z,99.90
2022-10-09T05:12:03.080Z,99.90
2022-10-09T05:14:31.139Z,99.90
2022-10-09T05:17:13.673Z,99.90
2022-10-09T05:19:43.768Z,99.90
2022-10-09T05:22:11.881Z,99.90
2022-10-09T05:24:40.035Z,99.90
2022-10-09T05:27:08.103Z,99.90
2022-10-09T05:29:36.207Z,99.90
2022-10-09T05:32:05.780Z,99.90
2022-10-09T05:34:35.182Z,99.90
2022-10-09T05:37:04.864Z,99.90
2022-10-09T05:39:35.866Z,99.90
2022-10-09T05:42:04.198Z,99.90
2022-10-09T05:44:32.290Z,99.90
2022-10-09T05:47:00.386Z,99.90
2022-10-09T05:49:28.746Z,99.90
2022-10-09T05:51:57.149Z,99.90
2022-10-09T05:54:27.328Z,99.90
2022-10-09T05:56:55.392Z,99.90
2022-10-09T05:59:23.756Z,99.90
2022-10-09T06:01:54.588Z,99.90
2022-10-09T06:04:25.236Z,99.90
2022-10-09T06:06:53.387Z,99.90
2022-10-09T06:09:24.199Z,99.90
2022-10-09T06:11:55.241Z,99.90
2022-10-09T06:14:24.518Z,99.90
2022-10-09T06:16:53.086Z,99.90
2022-10-09T06:19:21.561Z,99.90
2022-10-09T06:21:50.562Z,99.90
2022-10-09T06:24:25.763Z,99.90
2022-10-09T06:26:56.700Z,99.90
2022-10-09T06:29:24.799Z,99.90
2022-10-09T06:31:53.227Z,99.90
2022-10-09T06:34:21.420Z,99.90
2022-10-09T06:36:49.974Z,99.90
2022-10-09T06:39:18.535Z,99.90
2022-10-09T06:41:46.688Z,99.90
2022-10-09T06:44:17.399Z,99.90
2022-10-09T06:46:47.103Z,99.90
2022-10-09T06:49:16.632Z,99.90
2022-10-09T06:51:44.790Z,99.90
2022-10-09T06:54:14.391Z,99.90
2022-10-09T06:56:42.708Z,99.90
2022-10-09T06:59:12.560Z,99.90
2022-10-09T07:01:42.101Z,99.90
2022-10-09T07:04:17.699Z,99.90
2022-10-09T07:06:47.901Z,99.90
2022-10-09T07:09:17.386Z,99.90
2022-10-09T07:11:49.063Z,99.90
2022-10-09T07:14:17.586Z,99.90
2022-10-09T07:16:48.578Z,99.90
2022-10-09T07:19:17.722Z,99.90
2022-10-09T07:21:49.016Z,99.90
2022-10-09T07:24:20.462Z,99.90
2022-10-09T07:26:49.039Z,99.90
2022-10-09T07:29:19.857Z,99.90
2022-10-09T07:31:49.935Z,99.90
2022-10-09T07:34:18.681Z,99.90
2022-10-09T07:36:46.812Z,99.90
2022-10-09T07:39:14.946Z,99.90
2022-10-09T07:41:43.400Z,99.90
2022-10-09T07:44:12.195Z,99.90
2022-10-09T07:46:40.411Z,99.90
2022-10-09T07:49:09.912Z,99.90
2022-10-09T07:51:39.351Z,99.90
2022-10-09T07:54:07.496Z,99.90
2022-10-09T07:56:37.982Z,99.90
2022-10-09T07:59:07.576Z,99.90
2022-10-09T08:01:36.924Z,99.90
2022-10-09T08:04:05.932Z,99.90
2022-10-09T08:06:36.324Z,99.90
2022-10-09T08:09:06.162Z,99.90
2022-10-09T08:11:35.088Z,99.90
2022-10-09T08:14:03.497Z,99.90
2022-10-09T08:16:33.217Z,99.90
2022-10-09T08:19:02.486Z,99.90
2022-10-09T08:21:32.939Z,99.90
2022-10-09T08:24:02.815Z,99.90
2022-10-09T08:26:32.334Z,99.90
2022-10-09T08:29:02.085Z,99.90
2022-10-09T08:31:31.741Z,99.90
2022-10-09T08:34:02.814Z,99.90
2022-10-09T08:36:31.422Z,99.90
2022-10-09T08:38:59.968Z,99.90
2022-10-09T08:41:44.973Z,99.90
2022-10-09T08:44:17.934Z,99.90
2022-10-09T08:47:02.471Z,99.90
2022-10-09T08:49:38.216Z,99.90
2022-10-09T08:52:22.564Z,99.90
2022-10-09T08:54:51.357Z,99.90
2022-10-09T08:57:22.888Z,99.90
2022-10-09T08:59:50.975Z,99.90
2022-10-09T09:02:42.380Z,99.90
2022-10-09T09:05:23.970Z,99.90
2022-10-09T09:08:01.390Z,99.90
2022-10-09T09:10:42.126Z,99.90
2022-10-09T09:13:26.861Z,99.90
2022-10-09T09:16:01.403Z,99.90
2022-10-09T09:18:42.828Z,99.90
2022-10-09T09:21:20.915Z,99.90
2022-10-09T09:23:49.792Z,99.90
2022-10-09T09:26:19.938Z,99.90
2022-10-09T09:28:54.358Z,99.90
2022-10-09T09:31:26.176Z,99.90
2022-10-09T09:33:59.247Z,99.90
2022-10-09T09:36:32.471Z,99.90
2022-10-09T09:41:48.748Z,99.90
2022-10-09T09:44:19.935Z,99.90
2022-10-09T09:46:50.474Z,99.90
2022-10-09T09:49:20.923Z,99.90
2022-10-09T09:51:50.867Z,99.90
2022-10-09T09:54:24.388Z,99.90
2022-10-09T09:59:45.432Z,99.90
2022-10-09T10:02:16.379Z,99.90
2022-10-09T10:04:52.939Z,99.90
2022-10-09T10:07:32.113Z,99.90
2022-10-09T10:10:08.007Z,99.90
2022-10-09T10:12:41.715Z,99.90
2022-10-09T10:15:21.316Z,99.90
2022-10-09T10:17:50.869Z,99.90
2022-10-09T10:20:25.497Z,99.90
2022-10-09T10:23:01.262Z,99.90
2022-10-09T10:25:35.290Z,99.90
2022-10-09T10:28:08.773Z,99.90
2022-10-09T10:30:39.613Z,98.80
2022-10-09T10:33:19.443Z,99.90
2022-10-09T10:35:53.244Z,99.90
2022-10-09T10:38:27.711Z,99.90
2022-10-09T10:41:03.025Z,99.90
2022-10-09T10:43:38.395Z,99.90
2022-10-09T10:46:18.517Z,99.90
2022-10-09T10:48:48.348Z,99.60
2022-10-09T10:51:51.976Z,99.70
2022-10-09T10:54:37.360Z,99.90
2022-10-09T10:57:11.802Z,99.90
2022-10-09T10:59:43.761Z,99.20
2022-10-09T11:02:59.460Z,99.70
2022-10-09T11:05:37.285Z,99.90
2022-10-09T11:08:18.030Z,99.40
2022-10-09T11:10:57.881Z,99.90
2022-10-09T11:13:33.653Z,99.50
2022-10-09T11:16:16.927Z,99.20
2022-10-09T11:19:05.044Z,99.90
2022-10-09T11:21:44.800Z,99.10
2022-10-09T11:24:45.267Z,99.90
2022-10-09T11:27:19.868Z,99.90
2022-10-09T11:29:53.899Z,99.90
2022-10-09T11:32:28.462Z,99.90
2022-10-09T11:35:04.494Z,99.90
2022-10-09T11:37:39.349Z,99.90
2022-10-09T11:40:17.048Z,99.90
2022-10-09T11:42:48.656Z,99.90
2022-10-09T11:45:23.601Z,99.90
2022-10-09T11:48:02.953Z,99.90
2022-10-09T11:50:43.526Z,99.90
2022-10-09T11:53:16.894Z,98.80
2022-10-09T11:55:48.303Z,99.40
2022-10-09T11:58:24.990Z,99.90
2022-10-09T12:00:55.796Z,99.10
2022-10-09T12:03:33.820Z,99.50
2022-10-09T12:06:08.934Z,99.90
2022-10-09T12:08:39.697Z,98.60
2022-10-09T12:11:16.433Z,99.90
2022-10-09T12:13:50.639Z,99.30
2022-10-09T12:16:48.879Z,99.90
2022-10-09T12:19:21.206Z,99.90
2022-10-09T12:21:55.469Z,99.90
2022-10-09T12:24:30.085Z,98.20
2022-10-09T12:27:04.031Z,99.70
2022-10-09T12:29:37.910Z,98.90
2022-10-09T12:32:12.488Z,99.90
2022-10-09T12:34:47.222Z,99.90
2022-10-09T12:37:17.921Z,99.90
2022-10-09T12:39:48.489Z,99.70
2022-10-09T12:42:21.678Z,99.90
2022-10-09T12:44:51.824Z,99.90
2022-10-09T12:47:26.675Z,99.30
2022-10-09T12:49:59.959Z,99.90
2022-10-09T12:52:28.967Z,99.90
2022-10-09T12:54:58.975Z,99.90
2022-10-09T12:57:28.096Z,99.90
2022-10-09T12:59:58.803Z,99.90
2022-10-09T13:02:27.406Z,99.90
2022-10-09T13:04:58.107Z,99.90
2022-10-09T13:07:30.043Z,99.90
2022-10-09T13:10:06.371Z,99.90
2022-10-09T13:12:35.602Z,99.90
2022-10-09T13:15:05.635Z,99.90
2022-10-09T13:17:36.754Z,99.90
2022-10-09T13:20:24.249Z,99.90
2022-10-09T13:22:56.848Z,99.90
2022-10-09T13:25:28.430Z,99.90
2022-10-09T13:27:57.897Z,99.90
2022-10-09T13:30:28.230Z,99.90
2022-10-09T13:32:56.925Z,99.90
2022-10-09T13:35:25.097Z,99.90
2022-10-09T13:37:53.461Z,99.20
2022-10-09T13:40:22.459Z,99.90
2022-10-09T13:42:55.781Z,98.30
2022-10-09T13:45:24.355Z,99.10
2022-10-09T13:47:52.717Z,99.90
2022-10-09T13:50:21.780Z,99.30
2022-10-09T13:52:50.144Z,98.60
2022-10-09T13:55:18.618Z,99.60
2022-10-09T13:57:47.977Z,99.10
2022-10-09T14:00:18.403Z,96.90
2022-10-09T14:02:46.523Z,96.10
2022-10-09T14:05:14.793Z,96.90
2022-10-09T14:07:43.042Z,99.80
2022-10-09T14:10:11.962Z,96.20
2022-10-09T14:12:40.122Z,97.90
2022-10-09T14:15:08.945Z,95.10
2022-10-09T14:17:38.789Z,96.30
2022-10-09T14:20:07.788Z,94.90
2022-10-09T14:22:35.897Z,95.20
2022-10-09T14:25:05.254Z,95.80
2022-10-09T14:30:07.372Z,97.40
2022-10-09T14:32:35.841Z,96.60
2022-10-09T14:35:05.841Z,96.30
2022-10-09T14:37:42.650Z,96.70
2022-10-09T14:40:11.731Z,97.00
2022-10-09T14:42:40.020Z,97.40
2022-10-09T14:45:09.327Z,97.50
2022-10-09T14:47:37.843Z,97.80
2022-10-09T14:50:08.538Z,97.80
2022-10-09T14:52:36.646Z,99.40
2022-10-09T14:55:04.922Z,98.40
2022-10-09T14:57:35.368Z,97.70
2022-10-09T15:00:04.840Z,97.80
2022-10-09T15:02:33.368Z,97.30
2022-10-09T15:05:01.503Z,97.70
2022-10-09T15:07:31.972Z,97.90
2022-10-09T15:10:01.622Z,99.00
2022-10-09T15:12:29.776Z,98.90
2022-10-09T15:14:57.834Z,98.60
2022-10-09T15:17:25.982Z,98.80
2022-10-09T15:19:55.372Z,99.90
2022-10-09T15:22:23.485Z,99.00
2022-10-09T15:24:53.022Z,99.40
2022-10-09T15:27:21.134Z,99.70
2022-10-09T15:29:50.564Z,99.30
2022-10-09T15:32:18.693Z,99.30
2022-10-09T15:34:46.844Z,99.90
2022-10-09T15:37:15.006Z,99.70
2022-10-09T15:39:43.186Z,99.50
2022-10-09T15:42:12.767Z,99.90
2022-10-09T15:44:43.221Z,99.20
2022-10-09T15:47:16.662Z,99.80
2022-10-09T15:49:46.567Z,99.20
2022-10-09T15:52:16.211Z,99.90
2022-10-09T15:54:44.437Z,99.90
2022-10-09T15:57:13.995Z,99.50
2022-10-09T15:59:42.500Z,99.90
2022-10-09T16:02:11.393Z,99.90
2022-10-09T16:04:39.545Z,99.90
2022-10-09T16:07:07.629Z,99.10
2022-10-09T16:09:36.070Z,99.90
2022-10-09T16:12:04.919Z,99.80
2022-10-09T16:14:34.460Z,99.40
2022-10-09T16:17:03.918Z,99.90
2022-10-09T16:19:35.339Z,99.40
2022-10-09T16:22:03.576Z,99.70
2022-10-09T16:24:32.155Z,99.50
2022-10-09T16:27:00.827Z,99.90
2022-10-09T16:29:30.761Z,99.90
2022-10-09T16:32:00.312Z,99.90
2022-10-09T16:34:28.437Z,99.90
2022-10-09T16:36:57.323Z,99.90
2022-10-09T16:39:25.446Z,99.90
2022-10-09T16:41:53.576Z,99.90
2022-10-09T16:44:21.712Z,99.90
2022-10-09T16:46:49.811Z,99.90
2022-10-09T16:49:22.661Z,99.90
2022-10-09T16:51:53.500Z,99.90
2022-10-09T16:54:21.591Z,99.90
2022-10-09T16:56:49.720Z,99.90
2022-10-09T16:59:18.390Z,99.90
2022-10-09T17:01:47.794Z,99.90
2022-10-09T17:04:17.513Z,99.90
2022-10-09T17:06:47.103Z,99.90
2022-10-09T17:09:15.699Z,99.90
2022-10-09T17:11:43.897Z,99.90
2022-10-09T17:14:12.805Z,99.90
2022-10-09T17:16:43.679Z,99.90
2022-10-09T17:19:12.029Z,99.90
2022-10-09T17:21:40.309Z,99.90
2022-10-09T17:24:14.019Z,99.90
2022-10-09T17:26:42.353Z,99.90
2022-10-09T17:29:11.098Z,99.90
2022-10-09T17:31:40.897Z,99.90
2022-10-09T17:34:09.448Z,99.90
2022-10-09T17:36:40.610Z,99.90
2022-10-09T17:39:14.535Z,99.90
2022-10-09T17:41:44.530Z,99.90
2022-10-09T17:44:13.167Z,99.90
2022-10-09T17:46:41.741Z,99.90
2022-10-09T17:49:10.518Z,99.90
2022-10-09T17:51:40.974Z,99.90
2022-10-09T17:54:12.979Z,99.90
2022-10-09T17:56:41.580Z,99.90
2022-10-09T17:59:10.252Z,99.90
2022-10-09T18:01:46.598Z,99.90
2022-10-09T18:04:17.070Z,99.90
2022-10-09T18:06:45.367Z,99.90
2022-10-09T18:09:14.892Z,99.90
2022-10-09T18:11:42.996Z,99.90
2022-10-09T18:14:12.189Z,99.90
2022-10-09T18:16:41.126Z,99.90
2022-10-09T18:19:12.519Z,99.90
2022-10-09T18:21:42.759Z,99.90
2022-10-09T18:24:11.688Z,99.90
2022-10-09T18:26:41.642Z,99.90
2022-10-09T18:29:16.624Z,99.90
2022-10-09T18:31:50.767Z,99.90
2022-10-09T18:34:19.196Z,99.90
2022-10-09T18:36:47.290Z,99.90
2022-10-09T18:39:16.310Z,99.90
2022-10-09T18:41:45.924Z,99.90
2022-10-09T18:44:19.034Z,99.90
2022-10-09T18:46:49.763Z,99.90
2022-10-09T18:49:20.369Z,99.90
2022-10-09T18:51:50.074Z,99.90
2022-10-09T18:54:19.462Z,99.90
2022-10-09T18:56:49.070Z,99.90
2022-10-09T18:59:20.750Z,99.90
2022-10-09T19:01:49.372Z,99.90
2022-10-09T19:04:18.977Z,99.90
2022-10-09T19:06:47.267Z,99.90
2022-10-09T19:09:16.317Z,99.90
2022-10-09T19:11:44.508Z,99.90
2022-10-09T19:14:18.100Z,99.90
2022-10-09T19:16:46.758Z,99.90
2022-10-09T19:19:15.486Z,99.90
2022-10-09T19:21:44.381Z,99.90
2022-10-09T19:24:13.721Z,99.90
2022-10-09T19:26:42.555Z,99.90
2022-10-09T19:29:10.784Z,99.90
2022-10-09T19:31:40.331Z,99.90
2022-10-09T19:34:08.752Z,99.90
2022-10-09T19:36:37.701Z,99.90
2022-10-09T19:39:07.743Z,99.90
2022-10-09T19:41:36.081Z,99.90
2022-10-09T19:44:04.490Z,99.90
2022-10-09T19:46:32.932Z,99.90
2022-10-09T19:49:02.415Z,99.90
2022-10-09T19:51:31.336Z,99.90
2022-10-09T19:54:01.997Z,99.90
2022-10-09T19:56:33.107Z,99.90
2022-10-09T19:59:03.040Z,99.90
2022-10-09T20:01:35.271Z,99.90
2022-10-09T20:04:08.437Z,99.90
2022-10-09T20:06:38.643Z,99.90
2022-10-09T20:09:07.640Z,99.90
2022-10-09T20:11:36.111Z,99.90
2022-10-09T20:14:05.364Z,99.90
2022-10-09T20:16:34.298Z,99.90
2022-10-09T20:19:05.126Z,99.90
2022-10-09T20:21:34.221Z,99.90
2022-10-09T20:24:03.216Z,99.90
2022-10-09T20:26:33.233Z,99.90
2022-10-09T20:29:01.627Z,99.90
2022-10-09T20:31:30.368Z,99.90
2022-10-09T20:34:00.082Z,99.90
2022-10-09T20:36:31.278Z,99.90
2022-10-09T20:39:01.616Z,99.90
2022-10-09T20:41:31.374Z,99.90
2022-10-09T20:44:01.793Z,99.90
2022-10-09T20:46:36.369Z,99.90
2022-10-09T20:49:06.301Z,99.90
2022-10-09T20:51:38.041Z,99.90
2022-10-09T20:54:10.027Z,99.90
2022-10-09T20:56:38.184Z,99.90
2022-10-09T20:59:06.321Z,99.90
2022-10-09T21:01:36.882Z,99.90
2022-10-09T21:04:06.413Z,99.90
2022-10-09T21:06:36.275Z,99.90
2022-10-09T21:09:04.685Z,99.90
2022-10-09T21:11:34.736Z,99.90
2022-10-09T21:14:03.575Z,99.90
2022-10-09T21:16:34.409Z,99.90
2022-10-09T21:19:04.344Z,99.90
2022-10-09T21:21:33.436Z,99.90
2022-10-09T21:24:03.630Z,99.90
2022-10-09T21:26:35.413Z,99.90
2022-10-09T21:29:04.586Z,99.90
2022-10-09T21:31:36.786Z,99.90
2022-10-09T21:34:04.937Z,99.90
2022-10-09T21:36:47.158Z,99.90
2022-10-09T21:39:27.993Z,99.90
2022-10-09T21:41:56.376Z,99.90
2022-10-09T21:44:24.401Z,99.90
2022-10-09T21:46:52.534Z,99.90
2022-10-09T21:49:22.256Z,99.90
2022-10-09T21:51:51.324Z,99.90
2022-10-09T21:54:19.638Z,99.90
2022-10-09T21:56:49.105Z,99.90
2022-10-09T21:59:17.179Z,99.90
2022-10-09T22:01:48.190Z,99.90
2022-10-09T22:04:17.299Z,99.90
2022-10-09T22:06:46.617Z,99.90
2022-10-09T22:09:15.832Z,99.90
2022-10-09T22:11:45.709Z,99.90
2022-10-09T22:14:16.005Z,99.90
2022-10-09T22:16:45.465Z,99.90
2022-10-09T22:19:14.238Z,99.90
2022-10-09T22:21:42.640Z,99.90
2022-10-09T22:24:11.654Z,99.90
2022-10-09T22:26:48.257Z,99.90
2022-10-09T22:32:04.325Z,99.90
2022-10-09T22:34:33.703Z,99.90
2022-10-09T22:37:01.932Z,99.90
2022-10-09T22:39:30.312Z,99.90
2022-10-09T22:41:58.407Z,99.90
2022-10-09T22:44:27.843Z,99.90
2022-10-09T22:47:00.524Z,99.90
2022-10-09T22:49:28.744Z,99.90
2022-10-09T22:51:56.851Z,99.90
2022-10-09T22:54:32.586Z,99.90
2022-10-09T22:57:00.663Z,99.90
2022-10-09T22:59:30.554Z,99.90
2022-10-09T23:01:59.158Z,99.90
2022-10-09T23:04:29.013Z,99.90
2022-10-09T23:06:59.028Z,99.90
2022-10-09T23:09:28.894Z,99.90
2022-10-09T23:11:59.721Z,99.90
2022-10-09T23:14:29.675Z,99.90
2022-10-09T23:16:57.756Z,99.90
2022-10-09T23:19:28.345Z,99.90
2022-10-09T23:21:56.435Z,99.90
2022-10-09T23:24:24.551Z,99.90
2022-10-09T23:26:53.130Z,99.90
2022-10-09T23:29:21.507Z,99.90
2022-10-09T23:31:53.539Z,99.90
2022-10-09T23:34:22.155Z,99.90
2022-10-09T23:36:50.219Z,99.90
2022-10-09T23:39:18.295Z,99.90
2022-10-09T23:41:46.580Z,99.90
2022-10-09T23:44:17.791Z,99.90
2022-10-09T23:46:50.841Z,99.90
2022-10-09T23:49:19.041Z,99.90
2022-10-09T23:51:47.831Z,99.90
2022-10-09T23:54:16.077Z,99.90
2022-10-09T23:56:44.240Z,99.90
2022-10-09T23:59:12.762Z,99.90
